sensor_id;sensor_type;location;lat;lon;timestamp;P1;durP1;ratioP1;P2;durP2;ratioP2
2299;SDS011;1158;48.750;9.078;2023-06-10T00:00:06;11.60;;;10.50;;
2299;SDS011;1158;48.750;9.078;2023-06-10T00:02:33;11.37;;;10.20;;
2299;SDS011;1158;48.750;9.078;2023-06-10T00:05:00;12.60;;;11.30;;
2299;SDS011;1158;48.750;9.078;2023-06-10T00:07:27;11.03;;;9.90;;
2299;SDS011;1158;48.750;9.078;2023-06-10T00:09:54;11.27;;;10.17;;
2299;SDS011;1158;48.750;9.078;2023-06-10T00:12:22;16.30;;;12.87;;
2299;SDS011;1158;48.750;9.078;2023-06-10T00:14:50;12.63;;;11.33;;
2299;SDS011;1158;48.750;9.078;2023-06-10T00:17:18;12.20;;;11.00;;
2299;SDS011;1158;48.750;9.078;2023-06-10T00:19:45;12.60;;;10.90;;
2299;SDS011;1158;48.750;9.078;2023-06-10T00:22:12;14.37;;;10.70;;
2299;SDS011;1158;48.750;9.078;2023-06-10T00:24:39;13.83;;;12.20;;
2299;SDS011;1158;48.750;9.078;2023-06-10T00:27:07;13.53;;;12.10;;
2299;SDS011;1158;48.750;9.078;2023-06-10T00:29:33;12.03;;;10.90;;
2299;SDS011;1158;48.750;9.078;2023-06-10T00:32:02;11.50;;;10.40;;
2299;SDS011;1158;48.750;9.078;2023-06-10T00:34:29;14.00;;;11.73;;
2299;SDS011;1158;48.750;9.078;2023-06-10T00:36:56;12.90;;;11.53;;
2299;SDS011;1158;48.750;9.078;2023-06-10T00:39:23;15.80;;;12.50;;
2299;SDS011;1158;48.750;9.078;2023-06-10T00:41:49;12.67;;;11.40;;
2299;SDS011;1158;48.750;9.078;2023-06-10T00:44:16;12.07;;;10.80;;
2299;SDS011;1158;48.750;9.078;2023-06-10T00:46:43;12.50;;;11.20;;
2299;SDS011;1158;48.750;9.078;2023-06-10T00:49:11;12.33;;;10.87;;
2299;SDS011;1158;48.750;9.078;2023-06-10T00:51:38;13.10;;;11.50;;
2299;SDS011;1158;48.750;9.078;2023-06-10T00:54:05;12.40;;;11.20;;
2299;SDS011;1158;48.750;9.078;2023-06-10T00:56:33;12.30;;;11.00;;
2299;SDS011;1158;48.750;9.078;2023-06-10T00:59:01;12.93;;;11.43;;
2299;SDS011;1158;48.750;9.078;2023-06-10T01:01:28;12.83;;;11.53;;
2299;SDS011;1158;48.750;9.078;2023-06-10T01:03:55;12.97;;;11.67;;
2299;SDS011;1158;48.750;9.078;2023-06-10T01:06:27;12.07;;;10.97;;
2299;SDS011;1158;48.750;9.078;2023-06-10T01:09:04;12.27;;;10.97;;
2299;SDS011;1158;48.750;9.078;2023-06-10T01:11:41;14.43;;;12.93;;
2299;SDS011;1158;48.750;9.078;2023-06-10T01:14:13;13.30;;;12.00;;
2299;SDS011;1158;48.750;9.078;2023-06-10T01:16:40;12.73;;;11.43;;
2299;SDS011;1158;48.750;9.078;2023-06-10T01:19:07;14.53;;;12.97;;
2299;SDS011;1158;48.750;9.078;2023-06-10T01:21:36;13.17;;;11.87;;
2299;SDS011;1158;48.750;9.078;2023-06-10T01:24:04;13.33;;;12.03;;
2299;SDS011;1158;48.750;9.078;2023-06-10T01:26:33;13.73;;;11.57;;
2299;SDS011;1158;48.750;9.078;2023-06-10T01:29:03;13.90;;;12.53;;
2299;SDS011;1158;48.750;9.078;2023-06-10T01:31:38;13.67;;;12.27;;
2299;SDS011;1158;48.750;9.078;2023-06-10T01:34:09;14.00;;;12.50;;
2299;SDS011;1158;48.750;9.078;2023-06-10T01:36:39;14.90;;;12.60;;
2299;SDS011;1158;48.750;9.078;2023-06-10T01:39:07;12.63;;;11.33;;
2299;SDS011;1158;48.750;9.078;2023-06-10T01:41:35;14.30;;;12.80;;
2299;SDS011;1158;48.750;9.078;2023-06-10T01:44:02;14.43;;;12.20;;
2299;SDS011;1158;48.750;9.078;2023-06-10T01:46:29;14.17;;;12.50;;
2299;SDS011;1158;48.750;9.078;2023-06-10T01:48:55;14.87;;;13.30;;
2299;SDS011;1158;48.750;9.078;2023-06-10T01:51:22;14.33;;;12.47;;
2299;SDS011;1158;48.750;9.078;2023-06-10T01:53:50;14.40;;;12.80;;
2299;SDS011;1158;48.750;9.078;2023-06-10T01:56:17;13.50;;;12.20;;
2299;SDS011;1158;48.750;9.078;2023-06-10T01:58:45;14.77;;;13.17;;
2299;SDS011;1158;48.750;9.078;2023-06-10T02:01:11;16.70;;;14.03;;
2299;SDS011;1158;48.750;9.078;2023-06-10T02:03:38;16.37;;;13.20;;
2299;SDS011;1158;48.750;9.078;2023-06-10T02:06:05;13.50;;;12.13;;
2299;SDS011;1158;48.750;9.078;2023-06-10T02:08:32;15.37;;;13.73;;
2299;SDS011;1158;48.750;9.078;2023-06-10T02:11:00;15.60;;;13.93;;
2299;SDS011;1158;48.750;9.078;2023-06-10T02:13:27;14.80;;;13.30;;
2299;SDS011;1158;48.750;9.078;2023-06-10T02:15:53;15.47;;;13.60;;
2299;SDS011;1158;48.750;9.078;2023-06-10T02:18:20;17.00;;;13.30;;
2299;SDS011;1158;48.750;9.078;2023-06-10T02:20:47;16.57;;;13.13;;
2299;SDS011;1158;48.750;9.078;2023-06-10T02:23:14;14.50;;;13.00;;
2299;SDS011;1158;48.750;9.078;2023-06-10T02:25:40;14.70;;;13.27;;
2299;SDS011;1158;48.750;9.078;2023-06-10T02:28:09;14.37;;;12.87;;
2299;SDS011;1158;48.750;9.078;2023-06-10T02:30:38;14.50;;;12.47;;
2299;SDS011;1158;48.750;9.078;2023-06-10T02:33:05;15.30;;;13.70;;
2299;SDS011;1158;48.750;9.078;2023-06-10T02:35:34;15.07;;;13.47;;
2299;SDS011;1158;48.750;9.078;2023-06-10T02:38:01;15.50;;;13.90;;
2299;SDS011;1158;48.750;9.078;2023-06-10T02:40:29;16.13;;;14.43;;
2299;SDS011;1158;48.750;9.078;2023-06-10T02:42:55;15.67;;;13.60;;
2299;SDS011;1158;48.750;9.078;2023-06-10T02:45:23;19.47;;;13.30;;
2299;SDS011;1158;48.750;9.078;2023-06-10T02:47:50;14.10;;;12.50;;
2299;SDS011;1158;48.750;9.078;2023-06-10T02:50:17;16.07;;;13.77;;
2299;SDS011;1158;48.750;9.078;2023-06-10T02:52:44;16.00;;;14.37;;
2299;SDS011;1158;48.750;9.078;2023-06-10T02:55:11;16.27;;;14.50;;
2299;SDS011;1158;48.750;9.078;2023-06-10T02:57:38;15.93;;;14.43;;
2299;SDS011;1158;48.750;9.078;2023-06-10T03:00:06;14.33;;;12.83;;
2299;SDS011;1158;48.750;9.078;2023-06-10T03:02:37;18.13;;;15.03;;
2299;SDS011;1158;48.750;9.078;2023-06-10T03:05:05;15.93;;;14.20;;
2299;SDS011;1158;48.750;9.078;2023-06-10T03:07:35;15.30;;;13.80;;
2299;SDS011;1158;48.750;9.078;2023-06-10T03:10:02;16.63;;;14.83;;
2299;SDS011;1158;48.750;9.078;2023-06-10T03:12:30;13.67;;;12.27;;
2299;SDS011;1158;48.750;9.078;2023-06-10T03:14:56;16.67;;;14.57;;
2299;SDS011;1158;48.750;9.078;2023-06-10T03:17:23;16.67;;;14.87;;
2299;SDS011;1158;48.750;9.078;2023-06-10T03:19:51;17.97;;;14.10;;
2299;SDS011;1158;48.750;9.078;2023-06-10T03:22:18;17.03;;;14.73;;
2299;SDS011;1158;48.750;9.078;2023-06-10T03:24:45;17.30;;;13.90;;
2299;SDS011;1158;48.750;9.078;2023-06-10T03:27:15;17.80;;;14.77;;
2299;SDS011;1158;48.750;9.078;2023-06-10T03:29:41;16.50;;;13.60;;
2299;SDS011;1158;48.750;9.078;2023-06-10T03:32:08;18.63;;;14.60;;
2299;SDS011;1158;48.750;9.078;2023-06-10T03:34:35;16.77;;;14.50;;
2299;SDS011;1158;48.750;9.078;2023-06-10T03:37:03;17.03;;;15.23;;
2299;SDS011;1158;48.750;9.078;2023-06-10T03:39:30;16.87;;;14.57;;
2299;SDS011;1158;48.750;9.078;2023-06-10T03:41:57;16.80;;;13.63;;
2299;SDS011;1158;48.750;9.078;2023-06-10T03:44:24;17.20;;;14.63;;
2299;SDS011;1158;48.750;9.078;2023-06-10T03:46:52;17.23;;;14.60;;
2299;SDS011;1158;48.750;9.078;2023-06-10T03:49:19;15.50;;;13.90;;
2299;SDS011;1158;48.750;9.078;2023-06-10T03:51:46;17.27;;;14.50;;
2299;SDS011;1158;48.750;9.078;2023-06-10T03:54:14;15.70;;;13.40;;
2299;SDS011;1158;48.750;9.078;2023-06-10T03:56:41;18.50;;;13.63;;
2299;SDS011;1158;48.750;9.078;2023-06-10T03:59:08;15.17;;;13.53;;
2299;SDS011;1158;48.750;9.078;2023-06-10T04:01:34;14.10;;;12.70;;
2299;SDS011;1158;48.750;9.078;2023-06-10T04:04:02;16.37;;;14.77;;
2299;SDS011;1158;48.750;9.078;2023-06-10T04:06:29;14.80;;;13.20;;
2299;SDS011;1158;48.750;9.078;2023-06-10T04:08:56;17.93;;;14.10;;
2299;SDS011;1158;48.750;9.078;2023-06-10T04:11:25;17.13;;;14.57;;
2299;SDS011;1158;48.750;9.078;2023-06-10T04:13:51;14.50;;;13.00;;
2299;SDS011;1158;48.750;9.078;2023-06-10T04:16:18;18.67;;;14.23;;
2299;SDS011;1158;48.750;9.078;2023-06-10T04:18:46;14.33;;;12.83;;
2299;SDS011;1158;48.750;9.078;2023-06-10T04:21:13;15.60;;;13.33;;
2299;SDS011;1158;48.750;9.078;2023-06-10T04:23:39;15.93;;;13.47;;
2299;SDS011;1158;48.750;9.078;2023-06-10T04:26:06;13.97;;;12.50;;
2299;SDS011;1158;48.750;9.078;2023-06-10T04:28:35;16.13;;;13.30;;
2299;SDS011;1158;48.750;9.078;2023-06-10T04:31:01;15.07;;;12.83;;
2299;SDS011;1158;48.750;9.078;2023-06-10T04:33:29;13.77;;;12.23;;
2299;SDS011;1158;48.750;9.078;2023-06-10T04:35:56;13.67;;;12.27;;
2299;SDS011;1158;48.750;9.078;2023-06-10T04:38:23;14.00;;;11.60;;
2299;SDS011;1158;48.750;9.078;2023-06-10T04:40:50;13.00;;;11.70;;
2299;SDS011;1158;48.750;9.078;2023-06-10T04:43:16;14.37;;;12.87;;
2299;SDS011;1158;48.750;9.078;2023-06-10T04:45:45;14.00;;;12.43;;
2299;SDS011;1158;48.750;9.078;2023-06-10T04:48:12;13.83;;;12.33;;
2299;SDS011;1158;48.750;9.078;2023-06-10T04:50:39;15.77;;;12.43;;
2299;SDS011;1158;48.750;9.078;2023-06-10T04:53:05;14.03;;;12.53;;
2299;SDS011;1158;48.750;9.078;2023-06-10T04:55:32;13.50;;;12.20;;
2299;SDS011;1158;48.750;9.078;2023-06-10T04:57:59;12.47;;;11.13;;
2299;SDS011;1158;48.750;9.078;2023-06-10T05:00:26;12.07;;;10.97;;
2299;SDS011;1158;48.750;9.078;2023-06-10T05:02:54;13.00;;;11.60;;
2299;SDS011;1158;48.750;9.078;2023-06-10T05:05:21;13.20;;;10.93;;
2299;SDS011;1158;48.750;9.078;2023-06-10T05:07:48;12.70;;;11.40;;
2299;SDS011;1158;48.750;9.078;2023-06-10T05:10:15;12.10;;;10.83;;
2299;SDS011;1158;48.750;9.078;2023-06-10T05:12:42;11.40;;;10.20;;
2299;SDS011;1158;48.750;9.078;2023-06-10T05:15:09;11.50;;;9.57;;
2299;SDS011;1158;48.750;9.078;2023-06-10T05:17:36;11.00;;;10.00;;
2299;SDS011;1158;48.750;9.078;2023-06-10T05:20:05;12.83;;;10.43;;
2299;SDS011;1158;48.750;9.078;2023-06-10T05:22:33;10.60;;;9.03;;
2299;SDS011;1158;48.750;9.078;2023-06-10T05:25:00;11.53;;;9.50;;
2299;SDS011;1158;48.750;9.078;2023-06-10T05:27:27;11.30;;;10.10;;
2299;SDS011;1158;48.750;9.078;2023-06-10T05:29:54;13.47;;;9.53;;
2299;SDS011;1158;48.750;9.078;2023-06-10T05:32:21;10.23;;;9.13;;
2299;SDS011;1158;48.750;9.078;2023-06-10T05:34:48;11.13;;;10.07;;
2299;SDS011;1158;48.750;9.078;2023-06-10T05:37:16;11.23;;;10.03;;
2299;SDS011;1158;48.750;9.078;2023-06-10T05:39:43;11.63;;;9.87;;
2299;SDS011;1158;48.750;9.078;2023-06-10T05:42:09;10.40;;;8.60;;
2299;SDS011;1158;48.750;9.078;2023-06-10T05:44:36;9.50;;;8.27;;
2299;SDS011;1158;48.750;9.078;2023-06-10T05:47:03;8.57;;;7.67;;
2299;SDS011;1158;48.750;9.078;2023-06-10T05:49:30;9.43;;;8.03;;
2299;SDS011;1158;48.750;9.078;2023-06-10T05:51:57;10.13;;;9.00;;
2299;SDS011;1158;48.750;9.078;2023-06-10T05:54:25;10.63;;;7.73;;
2299;SDS011;1158;48.750;9.078;2023-06-10T05:56:52;9.40;;;8.20;;
2299;SDS011;1158;48.750;9.078;2023-06-10T05:59:19;10.73;;;8.40;;
2299;SDS011;1158;48.750;9.078;2023-06-10T06:01:47;7.40;;;6.70;;
2299;SDS011;1158;48.750;9.078;2023-06-10T06:04:14;9.40;;;8.03;;
2299;SDS011;1158;48.750;9.078;2023-06-10T06:06:41;9.23;;;7.23;;
2299;SDS011;1158;48.750;9.078;2023-06-10T06:09:08;9.27;;;7.70;;
2299;SDS011;1158;48.750;9.078;2023-06-10T06:11:36;8.10;;;7.20;;
2299;SDS011;1158;48.750;9.078;2023-06-10T06:14:03;7.10;;;6.40;;
2299;SDS011;1158;48.750;9.078;2023-06-10T06:16:30;6.97;;;6.27;;
2299;SDS011;1158;48.750;9.078;2023-06-10T06:18:56;6.90;;;6.20;;
2299;SDS011;1158;48.750;9.078;2023-06-10T06:21:23;7.10;;;6.40;;
2299;SDS011;1158;48.750;9.078;2023-06-10T06:23:50;6.27;;;5.67;;
2299;SDS011;1158;48.750;9.078;2023-06-10T06:26:16;6.03;;;5.43;;
2299;SDS011;1158;48.750;9.078;2023-06-10T06:28:44;6.20;;;5.60;;
2299;SDS011;1158;48.750;9.078;2023-06-10T06:31:11;6.90;;;5.77;;
2299;SDS011;1158;48.750;9.078;2023-06-10T06:33:38;5.93;;;5.43;;
2299;SDS011;1158;48.750;9.078;2023-06-10T06:36:05;5.50;;;4.90;;
2299;SDS011;1158;48.750;9.078;2023-06-10T06:38:32;5.93;;;5.33;;
2299;SDS011;1158;48.750;9.078;2023-06-10T06:40:58;5.77;;;5.23;;
2299;SDS011;1158;48.750;9.078;2023-06-10T06:43:28;6.03;;;5.37;;
2299;SDS011;1158;48.750;9.078;2023-06-10T06:45:57;7.07;;;5.73;;
2299;SDS011;1158;48.750;9.078;2023-06-10T06:48:24;8.50;;;6.20;;
2299;SDS011;1158;48.750;9.078;2023-06-10T06:50:51;10.30;;;7.37;;
2299;SDS011;1158;48.750;9.078;2023-06-10T06:53:17;6.03;;;5.40;;
2299;SDS011;1158;48.750;9.078;2023-06-10T06:55:44;6.63;;;6.03;;
2299;SDS011;1158;48.750;9.078;2023-06-10T06:58:11;6.77;;;6.07;;
2299;SDS011;1158;48.750;9.078;2023-06-10T07:00:38;8.77;;;6.00;;
2299;SDS011;1158;48.750;9.078;2023-06-10T07:03:06;6.10;;;5.30;;
2299;SDS011;1158;48.750;9.078;2023-06-10T07:05:32;8.80;;;6.13;;
2299;SDS011;1158;48.750;9.078;2023-06-10T07:07:59;8.20;;;6.13;;
2299;SDS011;1158;48.750;9.078;2023-06-10T07:10:26;6.97;;;6.27;;
2299;SDS011;1158;48.750;9.078;2023-06-10T07:12:54;8.90;;;5.93;;
2299;SDS011;1158;48.750;9.078;2023-06-10T07:15:21;6.50;;;5.90;;
2299;SDS011;1158;48.750;9.078;2023-06-10T07:17:48;5.63;;;5.13;;
2299;SDS011;1158;48.750;9.078;2023-06-10T07:20:16;6.40;;;5.40;;
2299;SDS011;1158;48.750;9.078;2023-06-10T07:22:43;6.20;;;5.60;;
2299;SDS011;1158;48.750;9.078;2023-06-10T07:25:10;6.10;;;5.50;;
2299;SDS011;1158;48.750;9.078;2023-06-10T07:27:37;6.37;;;5.77;;
2299;SDS011;1158;48.750;9.078;2023-06-10T07:30:04;7.20;;;6.00;;
2299;SDS011;1158;48.750;9.078;2023-06-10T07:32:33;6.37;;;5.30;;
2299;SDS011;1158;48.750;9.078;2023-06-10T07:35:00;6.20;;;5.60;;
2299;SDS011;1158;48.750;9.078;2023-06-10T07:37:28;7.00;;;5.30;;
2299;SDS011;1158;48.750;9.078;2023-06-10T07:39:55;6.40;;;5.80;;
2299;SDS011;1158;48.750;9.078;2023-06-10T07:42:22;6.40;;;5.80;;
2299;SDS011;1158;48.750;9.078;2023-06-10T07:44:49;5.77;;;5.17;;
2299;SDS011;1158;48.750;9.078;2023-06-10T07:47:16;5.80;;;5.20;;
2299;SDS011;1158;48.750;9.078;2023-06-10T07:49:43;5.27;;;4.77;;
2299;SDS011;1158;48.750;9.078;2023-06-10T07:52:09;5.87;;;5.30;;
2299;SDS011;1158;48.750;9.078;2023-06-10T07:54:38;6.10;;;5.50;;
2299;SDS011;1158;48.750;9.078;2023-06-10T07:57:04;5.87;;;4.97;;
2299;SDS011;1158;48.750;9.078;2023-06-10T07:59:32;8.83;;;5.90;;
2299;SDS011;1158;48.750;9.078;2023-06-10T08:01:59;7.47;;;6.33;;
2299;SDS011;1158;48.750;9.078;2023-06-10T08:04:26;6.67;;;6.07;;
2299;SDS011;1158;48.750;9.078;2023-06-10T08:06:53;7.67;;;5.50;;
2299;SDS011;1158;48.750;9.078;2023-06-10T08:09:20;6.53;;;5.60;;
2299;SDS011;1158;48.750;9.078;2023-06-10T08:11:49;6.67;;;5.80;;
2299;SDS011;1158;48.750;9.078;2023-06-10T08:14:16;6.80;;;6.10;;
2299;SDS011;1158;48.750;9.078;2023-06-10T08:16:43;7.43;;;6.40;;
2299;SDS011;1158;48.750;9.078;2023-06-10T08:19:10;7.10;;;6.40;;
2299;SDS011;1158;48.750;9.078;2023-06-10T08:21:37;6.83;;;6.23;;
2299;SDS011;1158;48.750;9.078;2023-06-10T08:24:05;7.93;;;7.00;;
2299;SDS011;1158;48.750;9.078;2023-06-10T08:26:32;6.70;;;6.10;;
2299;SDS011;1158;48.750;9.078;2023-06-10T08:29:00;8.23;;;6.83;;
2299;SDS011;1158;48.750;9.078;2023-06-10T08:31:27;7.90;;;7.10;;
2299;SDS011;1158;48.750;9.078;2023-06-10T08:33:53;6.67;;;6.07;;
2299;SDS011;1158;48.750;9.078;2023-06-10T08:36:20;7.13;;;6.43;;
2299;SDS011;1158;48.750;9.078;2023-06-10T08:38:47;6.77;;;6.10;;
2299;SDS011;1158;48.750;9.078;2023-06-10T08:41:14;6.80;;;6.00;;
2299;SDS011;1158;48.750;9.078;2023-06-10T08:43:45;6.17;;;5.57;;
2299;SDS011;1158;48.750;9.078;2023-06-10T08:46:21;7.13;;;6.43;;
2299;SDS011;1158;48.750;9.078;2023-06-10T08:48:48;6.57;;;5.87;;
2299;SDS011;1158;48.750;9.078;2023-06-10T08:51:19;7.00;;;6.30;;
2299;SDS011;1158;48.750;9.078;2023-06-10T08:53:48;7.43;;;6.23;;
2299;SDS011;1158;48.750;9.078;2023-06-10T08:56:26;7.13;;;6.00;;
2299;SDS011;1158;48.750;9.078;2023-06-10T08:58:55;7.13;;;5.90;;
2299;SDS011;1158;48.750;9.078;2023-06-10T09:01:24;6.03;;;5.50;;
2299;SDS011;1158;48.750;9.078;2023-06-10T09:03:52;6.23;;;5.63;;
2299;SDS011;1158;48.750;9.078;2023-06-10T09:06:20;5.97;;;4.97;;
2299;SDS011;1158;48.750;9.078;2023-06-10T09:08:48;6.03;;;5.50;;
2299;SDS011;1158;48.750;9.078;2023-06-10T09:11:14;5.73;;;5.10;;
2299;SDS011;1158;48.750;9.078;2023-06-10T09:13:41;5.27;;;4.33;;
2299;SDS011;1158;48.750;9.078;2023-06-10T09:16:08;5.47;;;4.97;;
2299;SDS011;1158;48.750;9.078;2023-06-10T09:18:38;5.93;;;5.37;;
2299;SDS011;1158;48.750;9.078;2023-06-10T09:21:05;6.30;;;5.70;;
2299;SDS011;1158;48.750;9.078;2023-06-10T09:23:32;6.33;;;4.80;;
2299;SDS011;1158;48.750;9.078;2023-06-10T09:25:59;5.70;;;5.20;;
2299;SDS011;1158;48.750;9.078;2023-06-10T09:28:26;8.63;;;5.00;;
2299;SDS011;1158;48.750;9.078;2023-06-10T09:31:01;6.60;;;5.10;;
2299;SDS011;1158;48.750;9.078;2023-06-10T09:33:29;5.90;;;5.00;;
2299;SDS011;1158;48.750;9.078;2023-06-10T09:35:57;5.73;;;5.17;;
2299;SDS011;1158;48.750;9.078;2023-06-10T09:38:29;5.33;;;4.50;;
2299;SDS011;1158;48.750;9.078;2023-06-10T09:40:57;5.43;;;4.93;;
2299;SDS011;1158;48.750;9.078;2023-06-10T09:43:24;4.77;;;4.37;;
2299;SDS011;1158;48.750;9.078;2023-06-10T09:46:05;6.47;;;5.40;;
2299;SDS011;1158;48.750;9.078;2023-06-10T09:48:34;5.70;;;5.10;;
2299;SDS011;1158;48.750;9.078;2023-06-10T09:51:02;5.30;;;4.80;;
2299;SDS011;1158;48.750;9.078;2023-06-10T09:53:35;5.30;;;4.80;;
2299;SDS011;1158;48.750;9.078;2023-06-10T09:56:01;6.80;;;5.13;;
2299;SDS011;1158;48.750;9.078;2023-06-10T09:58:35;6.20;;;5.00;;
2299;SDS011;1158;48.750;9.078;2023-06-10T10:01:05;5.53;;;4.60;;
2299;SDS011;1158;48.750;9.078;2023-06-10T10:03:32;5.50;;;4.60;;
2299;SDS011;1158;48.750;9.078;2023-06-10T10:06:03;5.27;;;4.77;;
2299;SDS011;1158;48.750;9.078;2023-06-10T10:08:31;5.00;;;4.50;;
2299;SDS011;1158;48.750;9.078;2023-06-10T10:10:57;5.93;;;5.27;;
2299;SDS011;1158;48.750;9.078;2023-06-10T10:13:25;5.80;;;5.10;;
2299;SDS011;1158;48.750;9.078;2023-06-10T10:15:53;5.93;;;5.17;;
2299;SDS011;1158;48.750;9.078;2023-06-10T10:18:20;5.50;;;5.00;;
2299;SDS011;1158;48.750;9.078;2023-06-10T10:20:53;5.23;;;4.73;;
2299;SDS011;1158;48.750;9.078;2023-06-10T10:23:24;7.17;;;4.87;;
2299;SDS011;1158;48.750;9.078;2023-06-10T10:25:55;7.20;;;5.20;;
2299;SDS011;1158;48.750;9.078;2023-06-10T10:28:28;5.40;;;4.90;;
2299;SDS011;1158;48.750;9.078;2023-06-10T10:31:05;5.13;;;4.63;;
2299;SDS011;1158;48.750;9.078;2023-06-10T10:33:39;5.10;;;4.70;;
2299;SDS011;1158;48.750;9.078;2023-06-10T10:36:11;7.20;;;5.07;;
2299;SDS011;1158;48.750;9.078;2023-06-10T10:38:40;5.60;;;4.70;;
2299;SDS011;1158;48.750;9.078;2023-06-10T10:41:09;5.93;;;5.03;;
2299;SDS011;1158;48.750;9.078;2023-06-10T10:43:36;8.20;;;5.37;;
2299;SDS011;1158;48.750;9.078;2023-06-10T10:46:11;6.00;;;4.70;;
2299;SDS011;1158;48.750;9.078;2023-06-10T10:48:38;5.10;;;4.60;;
2299;SDS011;1158;48.750;9.078;2023-06-10T10:51:06;6.87;;;5.10;;
2299;SDS011;1158;48.750;9.078;2023-06-10T10:53:33;5.57;;;5.07;;
2299;SDS011;1158;48.750;9.078;2023-06-10T10:56:01;6.17;;;4.93;;
2299;SDS011;1158;48.750;9.078;2023-06-10T10:58:31;5.57;;;4.87;;
2299;SDS011;1158;48.750;9.078;2023-06-10T11:00:59;5.30;;;4.80;;
2299;SDS011;1158;48.750;9.078;2023-06-10T11:03:36;6.77;;;5.47;;
2299;SDS011;1158;48.750;9.078;2023-06-10T11:06:11;5.13;;;4.70;;
2299;SDS011;1158;48.750;9.078;2023-06-10T11:08:46;6.90;;;5.20;;
2299;SDS011;1158;48.750;9.078;2023-06-10T11:11:20;7.00;;;5.00;;
2299;SDS011;1158;48.750;9.078;2023-06-10T11:14:05;6.13;;;5.23;;
2299;SDS011;1158;48.750;9.078;2023-06-10T11:16:43;5.90;;;5.30;;
2299;SDS011;1158;48.750;9.078;2023-06-10T11:19:10;8.80;;;5.70;;
2299;SDS011;1158;48.750;9.078;2023-06-10T11:22:01;6.07;;;5.47;;
2299;SDS011;1158;48.750;9.078;2023-06-10T11:24:28;6.17;;;4.80;;
2299;SDS011;1158;48.750;9.078;2023-06-10T11:26:56;6.27;;;4.87;;
2299;SDS011;1158;48.750;9.078;2023-06-10T11:29:54;5.57;;;5.07;;
2299;SDS011;1158;48.750;9.078;2023-06-10T11:32:21;5.13;;;4.63;;
2299;SDS011;1158;48.750;9.078;2023-06-10T11:34:51;4.70;;;4.30;;
2299;SDS011;1158;48.750;9.078;2023-06-10T11:37:18;5.07;;;4.57;;
2299;SDS011;1158;48.750;9.078;2023-06-10T11:39:45;5.27;;;4.67;;
2299;SDS011;1158;48.750;9.078;2023-06-10T11:42:13;6.37;;;5.77;;
2299;SDS011;1158;48.750;9.078;2023-06-10T11:44:47;7.13;;;6.23;;
2299;SDS011;1158;48.750;9.078;2023-06-10T11:47:15;5.47;;;4.97;;
2299;SDS011;1158;48.750;9.078;2023-06-10T11:49:41;5.50;;;5.00;;
2299;SDS011;1158;48.750;9.078;2023-06-10T11:52:08;6.80;;;4.93;;
2299;SDS011;1158;48.750;9.078;2023-06-10T11:54:35;6.07;;;4.80;;
2299;SDS011;1158;48.750;9.078;2023-06-10T11:57:02;5.77;;;5.27;;
2299;SDS011;1158;48.750;9.078;2023-06-10T11:59:31;5.73;;;5.13;;
2299;SDS011;1158;48.750;9.078;2023-06-10T12:01:58;5.17;;;4.60;;
2299;SDS011;1158;48.750;9.078;2023-06-10T12:04:25;5.70;;;5.10;;
2299;SDS011;1158;48.750;9.078;2023-06-10T12:06:52;5.37;;;4.97;;
2299;SDS011;1158;48.750;9.078;2023-06-10T12:09:20;6.67;;;5.10;;
2299;SDS011;1158;48.750;9.078;2023-06-10T12:11:48;5.43;;;4.83;;
2299;SDS011;1158;48.750;9.078;2023-06-10T12:14:16;6.20;;;5.70;;
2299;SDS011;1158;48.750;9.078;2023-06-10T12:16:59;6.33;;;5.27;;
2299;SDS011;1158;48.750;9.078;2023-06-10T12:19:26;6.00;;;5.40;;
2299;SDS011;1158;48.750;9.078;2023-06-10T12:21:52;5.17;;;4.67;;
2299;SDS011;1158;48.750;9.078;2023-06-10T12:24:19;8.43;;;4.70;;
2299;SDS011;1158;48.750;9.078;2023-06-10T12:26:46;5.80;;;5.20;;
2299;SDS011;1158;48.750;9.078;2023-06-10T12:29:16;5.30;;;4.80;;
2299;SDS011;1158;48.750;9.078;2023-06-10T12:31:52;5.80;;;5.30;;
2299;SDS011;1158;48.750;9.078;2023-06-10T12:34:31;5.93;;;5.33;;
2299;SDS011;1158;48.750;9.078;2023-06-10T12:37:00;6.03;;;5.43;;
2299;SDS011;1158;48.750;9.078;2023-06-10T12:39:29;6.00;;;5.40;;
2299;SDS011;1158;48.750;9.078;2023-06-10T12:41:56;6.37;;;5.77;;
2299;SDS011;1158;48.750;9.078;2023-06-10T12:44:32;7.30;;;5.60;;
2299;SDS011;1158;48.750;9.078;2023-06-10T12:47:00;6.57;;;5.40;;
2299;SDS011;1158;48.750;9.078;2023-06-10T12:49:27;6.77;;;5.10;;
2299;SDS011;1158;48.750;9.078;2023-06-10T12:51:55;6.90;;;4.40;;
2299;SDS011;1158;48.750;9.078;2023-06-10T12:54:23;8.03;;;4.93;;
2299;SDS011;1158;48.750;9.078;2023-06-10T12:56:50;5.80;;;4.77;;
2299;SDS011;1158;48.750;9.078;2023-06-10T12:59:18;5.20;;;4.70;;
2299;SDS011;1158;48.750;9.078;2023-06-10T13:01:47;5.30;;;4.80;;
2299;SDS011;1158;48.750;9.078;2023-06-10T13:04:16;5.30;;;4.80;;
2299;SDS011;1158;48.750;9.078;2023-06-10T13:06:43;4.87;;;4.37;;
2299;SDS011;1158;48.750;9.078;2023-06-10T13:09:13;5.20;;;4.73;;
2299;SDS011;1158;48.750;9.078;2023-06-10T13:11:40;5.30;;;4.80;;
2299;SDS011;1158;48.750;9.078;2023-06-10T13:14:07;5.23;;;4.63;;
2299;SDS011;1158;48.750;9.078;2023-06-10T13:16:36;5.97;;;4.90;;
2299;SDS011;1158;48.750;9.078;2023-06-10T13:19:03;5.73;;;5.10;;
2299;SDS011;1158;48.750;9.078;2023-06-10T13:21:31;5.90;;;5.30;;
2299;SDS011;1158;48.750;9.078;2023-06-10T13:23:58;5.80;;;4.63;;
2299;SDS011;1158;48.750;9.078;2023-06-10T13:26:27;4.97;;;4.40;;
2299;SDS011;1158;48.750;9.078;2023-06-10T13:28:53;5.60;;;4.40;;
2299;SDS011;1158;48.750;9.078;2023-06-10T13:31:20;4.27;;;3.87;;
2299;SDS011;1158;48.750;9.078;2023-06-10T13:33:47;5.87;;;4.60;;
2299;SDS011;1158;48.750;9.078;2023-06-10T13:36:14;5.73;;;4.80;;
2299;SDS011;1158;48.750;9.078;2023-06-10T13:38:41;5.10;;;4.10;;
2299;SDS011;1158;48.750;9.078;2023-06-10T13:41:07;6.47;;;4.83;;
2299;SDS011;1158;48.750;9.078;2023-06-10T13:43:36;5.53;;;5.03;;
2299;SDS011;1158;48.750;9.078;2023-06-10T13:46:03;4.93;;;4.07;;
2299;SDS011;1158;48.750;9.078;2023-06-10T13:48:29;4.03;;;3.63;;
2299;SDS011;1158;48.750;9.078;2023-06-10T13:50:57;5.20;;;4.70;;
2299;SDS011;1158;48.750;9.078;2023-06-10T13:53:24;4.37;;;3.90;;
2299;SDS011;1158;48.750;9.078;2023-06-10T13:55:51;6.40;;;4.37;;
2299;SDS011;1158;48.750;9.078;2023-06-10T13:58:18;4.73;;;4.33;;
2299;SDS011;1158;48.750;9.078;2023-06-10T14:00:46;5.57;;;4.10;;
2299;SDS011;1158;48.750;9.078;2023-06-10T14:03:13;5.10;;;3.87;;
2299;SDS011;1158;48.750;9.078;2023-06-10T14:05:40;5.23;;;4.73;;
2299;SDS011;1158;48.750;9.078;2023-06-10T14:08:07;5.30;;;4.40;;
2299;SDS011;1158;48.750;9.078;2023-06-10T14:10:33;3.93;;;3.57;;
2299;SDS011;1158;48.750;9.078;2023-06-10T14:13:00;5.13;;;4.33;;
2299;SDS011;1158;48.750;9.078;2023-06-10T14:15:27;5.03;;;4.63;;
2299;SDS011;1158;48.750;9.078;2023-06-10T14:17:55;4.63;;;4.17;;
2299;SDS011;1158;48.750;9.078;2023-06-10T14:20:22;4.20;;;3.73;;
2299;SDS011;1158;48.750;9.078;2023-06-10T14:22:50;4.33;;;3.93;;
2299;SDS011;1158;48.750;9.078;2023-06-10T14:25:17;4.30;;;3.90;;
2299;SDS011;1158;48.750;9.078;2023-06-10T14:27:44;4.33;;;3.93;;
2299;SDS011;1158;48.750;9.078;2023-06-10T14:30:12;4.70;;;4.20;;
2299;SDS011;1158;48.750;9.078;2023-06-10T14:32:39;4.20;;;3.80;;
2299;SDS011;1158;48.750;9.078;2023-06-10T14:35:07;4.53;;;3.90;;
2299;SDS011;1158;48.750;9.078;2023-06-10T14:37:34;4.80;;;4.40;;
2299;SDS011;1158;48.750;9.078;2023-06-10T14:40:02;4.70;;;4.30;;
2299;SDS011;1158;48.750;9.078;2023-06-10T14:42:29;4.30;;;3.50;;
2299;SDS011;1158;48.750;9.078;2023-06-10T14:44:57;4.93;;;4.33;;
2299;SDS011;1158;48.750;9.078;2023-06-10T14:47:23;3.80;;;3.40;;
2299;SDS011;1158;48.750;9.078;2023-06-10T14:49:51;4.17;;;3.70;;
2299;SDS011;1158;48.750;9.078;2023-06-10T14:52:19;5.03;;;3.33;;
2299;SDS011;1158;48.750;9.078;2023-06-10T14:54:45;4.90;;;4.50;;
2299;SDS011;1158;48.750;9.078;2023-06-10T14:57:12;4.47;;;4.07;;
2299;SDS011;1158;48.750;9.078;2023-06-10T14:59:39;4.43;;;3.60;;
2299;SDS011;1158;48.750;9.078;2023-06-10T15:02:06;4.20;;;3.80;;
2299;SDS011;1158;48.750;9.078;2023-06-10T15:04:33;4.70;;;4.30;;
2299;SDS011;1158;48.750;9.078;2023-06-10T15:07:00;5.00;;;4.40;;
2299;SDS011;1158;48.750;9.078;2023-06-10T15:09:28;4.40;;;4.00;;